Accueil
METAR-TAF:

METAR-TAF

Aéroports :

Burgos, Espagne

Aéroport de Burgos

latitude: 42-22N, longitude: 003-38W, altitude: 894 m

Observation

Le bulletin a été fait il y a 39 minutes, à 13:00 UTC
Vent 7 kt de nord-est, variant entre nord et est
Température 13°C
Humidité 54%
Pression 1028 hPa
Visibilité 10 km ou plus
Nuages épars à une hauteur de 3500 ft

METAR: LEBG 221300Z 04007KT 350V100 9999 SCT035 13/04 Q1028

Heure: 15:39 (13:39 UTC)

Prévision

Le bulletin a été fait il y a 2 heures et 39 minutes, à 11:00 UTC
Prévision valable du 22 à 12 UTC au 22 à 21 UTC
Vent 5 kt de direction variable
Visibilité 10 km ou plus
Nuages épars à une hauteur de 4000 ft

TAF: LEBG 221100Z 2212/2221 VRB05KT 9999 SCT040

Observations et prévisions météorologiques de plus de 4000 aéroports (messages METAR et TAF).

Les stations disponibles sont représentées par des disques jaunes et rouges sur la carte.

Passer la souris dessus pour voir le nom de la station.

Cliquer dessus pour voir les observations et prévisions météorologiques.

Pour changer de carte: cliquez sur les boutons verts avec une croix noire pour zoomer, sur le bouton vert avec un tiret pour effectuer un zoom arrière, ou sur les flèches vertes pour les cartes adjacentes.


METAR-TAF: